sensor_id;sensor_type;location;lat;lon;timestamp;temperature;humidity
65374;SHT31;52070;53.760;9.678;2023-03-24T00:00:58;11.18;85.25
65374;SHT31;52070;53.760;9.678;2023-03-24T00:03:25;11.15;85.53
65374;SHT31;52070;53.760;9.678;2023-03-24T00:05:54;11.19;85.70
65374;SHT31;52070;53.760;9.678;2023-03-24T00:08:23;11.12;85.85
65374;SHT31;52070;53.760;9.678;2023-03-24T00:10:50;11.18;85.96
65374;SHT31;52070;53.760;9.678;2023-03-24T00:13:19;11.19;85.91
65374;SHT31;52070;53.760;9.678;2023-03-24T00:15:47;11.15;86.09
65374;SHT31;52070;53.760;9.678;2023-03-24T00:18:14;11.12;86.37
65374;SHT31;52070;53.760;9.678;2023-03-24T00:20:40;11.11;86.69
65374;SHT31;52070;53.760;9.678;2023-03-24T00:23:07;11.12;86.85
65374;SHT31;52070;53.760;9.678;2023-03-24T00:25:34;11.07;87.03
65374;SHT31;52070;53.760;9.678;2023-03-24T00:28:02;11.07;87.32
65374;SHT31;52070;53.760;9.678;2023-03-24T00:30:31;11.04;87.49
65374;SHT31;52070;53.760;9.678;2023-03-24T00:32:59;10.99;87.75
65374;SHT31;52070;53.760;9.678;2023-03-24T00:35:27;10.95;88.20
65374;SHT31;52070;53.760;9.678;2023-03-24T00:37:54;10.88;88.67
65374;SHT31;52070;53.760;9.678;2023-03-24T00:40:21;10.85;88.99
65374;SHT31;52070;53.760;9.678;2023-03-24T00:42:49;10.82;89.21
65374;SHT31;52070;53.760;9.678;2023-03-24T00:45:18;10.74;89.45
65374;SHT31;52070;53.760;9.678;2023-03-24T00:47:48;10.75;89.68
65374;SHT31;52070;53.760;9.678;2023-03-24T00:50:19;10.72;89.93
65374;SHT31;52070;53.760;9.678;2023-03-24T00:52:51;10.77;89.96
65374;SHT31;52070;53.760;9.678;2023-03-24T00:55:18;10.77;89.89
65374;SHT31;52070;53.760;9.678;2023-03-24T00:57:47;10.68;90.14
65374;SHT31;52070;53.760;9.678;2023-03-24T01:00:17;10.72;90.33
65374;SHT31;52070;53.760;9.678;2023-03-24T01:02:46;10.64;90.55
65374;SHT31;52070;53.760;9.678;2023-03-24T01:05:14;10.58;90.66
65374;SHT31;52070;53.760;9.678;2023-03-24T01:07:42;10.63;90.89
65374;SHT31;52070;53.760;9.678;2023-03-24T01:10:12;10.58;91.00
65374;SHT31;52070;53.760;9.678;2023-03-24T01:12:39;10.56;91.10
65374;SHT31;52070;53.760;9.678;2023-03-24T01:15:12;10.58;91.16
65374;SHT31;52070;53.760;9.678;2023-03-24T01:17:40;10.56;91.27
65374;SHT31;52070;53.760;9.678;2023-03-24T01:20:09;10.56;91.31
65374;SHT31;52070;53.760;9.678;2023-03-24T01:22:39;10.53;91.33
65374;SHT31;52070;53.760;9.678;2023-03-24T01:25:11;10.51;91.45
65374;SHT31;52070;53.760;9.678;2023-03-24T01:27:39;10.51;91.45
65374;SHT31;52070;53.760;9.678;2023-03-24T01:30:07;10.50;91.47
65374;SHT31;52070;53.760;9.678;2023-03-24T01:32:35;10.48;91.61
65374;SHT31;52070;53.760;9.678;2023-03-24T01:35:02;10.44;91.74
65374;SHT31;52070;53.760;9.678;2023-03-24T01:37:29;10.48;91.83
65374;SHT31;52070;53.760;9.678;2023-03-24T01:39:57;10.44;91.76
65374;SHT31;52070;53.760;9.678;2023-03-24T01:42:26;10.43;91.84
65374;SHT31;52070;53.760;9.678;2023-03-24T01:44:58;10.44;91.93
65374;SHT31;52070;53.760;9.678;2023-03-24T01:47:26;10.40;91.99
65374;SHT31;52070;53.760;9.678;2023-03-24T01:49:54;10.47;92.11
65374;SHT31;52070;53.760;9.678;2023-03-24T01:52:27;10.44;92.01
65374;SHT31;52070;53.760;9.678;2023-03-24T01:54:58;10.43;91.95
65374;SHT31;52070;53.760;9.678;2023-03-24T01:57:29;10.44;91.99
65374;SHT31;52070;53.760;9.678;2023-03-24T01:59:58;10.46;91.98
65374;SHT31;52070;53.760;9.678;2023-03-24T02:02:27;10.47;91.88
65374;SHT31;52070;53.760;9.678;2023-03-24T02:04:58;10.47;91.83
65374;SHT31;52070;53.760;9.678;2023-03-24T02:07:31;10.46;91.93
65374;SHT31;52070;53.760;9.678;2023-03-24T02:10:01;10.46;91.87
65374;SHT31;52070;53.760;9.678;2023-03-24T02:12:29;10.51;91.65
65374;SHT31;52070;53.760;9.678;2023-03-24T02:14:57;10.50;91.62
65374;SHT31;52070;53.760;9.678;2023-03-24T02:17:36;10.48;91.71
65374;SHT31;52070;53.760;9.678;2023-03-24T02:20:29;10.50;91.71
65374;SHT31;52070;53.760;9.678;2023-03-24T02:23:34;10.51;91.69
65374;SHT31;52070;53.760;9.678;2023-03-24T02:26:24;10.43;91.74
65374;SHT31;52070;53.760;9.678;2023-03-24T02:29:03;10.43;91.88
65374;SHT31;52070;53.760;9.678;2023-03-24T02:31:56;10.47;91.96
65374;SHT31;52070;53.760;9.678;2023-03-24T02:34:53;10.44;91.97
65374;SHT31;52070;53.760;9.678;2023-03-24T02:37:48;10.41;92.09
65374;SHT31;52070;53.760;9.678;2023-03-24T02:40:26;10.38;92.06
65374;SHT31;52070;53.760;9.678;2023-03-24T02:43:01;10.46;92.09
65374;SHT31;52070;53.760;9.678;2023-03-24T02:45:34;10.41;92.10
65374;SHT31;52070;53.760;9.678;2023-03-24T02:48:18;10.40;92.13
65374;SHT31;52070;53.760;9.678;2023-03-24T02:50:50;10.41;92.10
65374;SHT31;52070;53.760;9.678;2023-03-24T02:53:21;10.40;92.13
65374;SHT31;52070;53.760;9.678;2023-03-24T02:55:54;10.41;92.15
65374;SHT31;52070;53.760;9.678;2023-03-24T02:58:27;10.37;92.30
65374;SHT31;52070;53.760;9.678;2023-03-24T03:01:01;10.37;92.44
65374;SHT31;52070;53.760;9.678;2023-03-24T03:03:31;10.36;92.55
65374;SHT31;52070;53.760;9.678;2023-03-24T03:06:02;10.34;92.59
65374;SHT31;52070;53.760;9.678;2023-03-24T03:08:32;10.33;92.68
65374;SHT31;52070;53.760;9.678;2023-03-24T03:11:04;10.34;92.79
65374;SHT31;52070;53.760;9.678;2023-03-24T03:13:35;10.33;92.84
65374;SHT31;52070;53.760;9.678;2023-03-24T03:16:08;10.30;92.97
65374;SHT31;52070;53.760;9.678;2023-03-24T03:18:39;10.30;93.08
65374;SHT31;52070;53.760;9.678;2023-03-24T03:21:12;10.34;93.15
65374;SHT31;52070;53.760;9.678;2023-03-24T03:23:43;10.38;93.20
65374;SHT31;52070;53.760;9.678;2023-03-24T03:26:14;10.37;93.21
65374;SHT31;52070;53.760;9.678;2023-03-24T03:28:44;10.38;93.26
65374;SHT31;52070;53.760;9.678;2023-03-24T03:31:19;10.36;93.34
65374;SHT31;52070;53.760;9.678;2023-03-24T03:33:52;10.34;93.42
65374;SHT31;52070;53.760;9.678;2023-03-24T03:36:25;10.34;93.46
65374;SHT31;52070;53.760;9.678;2023-03-24T03:38:58;10.37;93.52
65374;SHT31;52070;53.760;9.678;2023-03-24T03:41:28;10.38;93.56
65374;SHT31;52070;53.760;9.678;2023-03-24T03:43:55;10.37;93.53
65374;SHT31;52070;53.760;9.678;2023-03-24T03:46:22;10.44;93.57
65374;SHT31;52070;53.760;9.678;2023-03-24T03:48:49;10.46;93.50
65374;SHT31;52070;53.760;9.678;2023-03-24T03:51:16;10.44;93.51
65374;SHT31;52070;53.760;9.678;2023-03-24T03:53:47;10.43;93.50
65374;SHT31;52070;53.760;9.678;2023-03-24T03:56:14;10.43;93.55
65374;SHT31;52070;53.760;9.678;2023-03-24T03:58:44;10.46;93.58
65374;SHT31;52070;53.760;9.678;2023-03-24T04:01:15;10.47;93.60
65374;SHT31;52070;53.760;9.678;2023-03-24T04:04:08;10.53;93.58
65374;SHT31;52070;53.760;9.678;2023-03-24T04:06:39;10.54;93.60
65374;SHT31;52070;53.760;9.678;2023-03-24T04:09:19;10.54;93.51
65374;SHT31;52070;53.760;9.678;2023-03-24T04:11:58;10.58;93.51
65374;SHT31;52070;53.760;9.678;2023-03-24T04:17:29;10.64;93.50
65374;SHT31;52070;53.760;9.678;2023-03-24T04:20:07;10.67;93.46
65374;SHT31;52070;53.760;9.678;2023-03-24T04:22:46;10.72;93.34
65374;SHT31;52070;53.760;9.678;2023-03-24T04:25:25;10.74;93.27
65374;SHT31;52070;53.760;9.678;2023-03-24T04:27:59;10.74;93.27
65374;SHT31;52070;53.760;9.678;2023-03-24T04:30:36;10.79;93.22
65374;SHT31;52070;53.760;9.678;2023-03-24T04:33:13;10.78;93.17
65374;SHT31;52070;53.760;9.678;2023-03-24T04:35:46;10.84;93.17
65374;SHT31;52070;53.760;9.678;2023-03-24T04:38:16;10.81;93.18
65374;SHT31;52070;53.760;9.678;2023-03-24T04:40:49;10.88;93.20
65374;SHT31;52070;53.760;9.678;2023-03-24T04:43:19;10.88;93.23
65374;SHT31;52070;53.760;9.678;2023-03-24T04:45:51;10.88;93.23
65374;SHT31;52070;53.760;9.678;2023-03-24T04:48:19;10.87;93.32
65374;SHT31;52070;53.760;9.678;2023-03-24T04:50:51;10.89;93.39
65374;SHT31;52070;53.760;9.678;2023-03-24T04:53:19;10.88;93.50
65374;SHT31;52070;53.760;9.678;2023-03-24T04:55:57;10.88;93.61
65374;SHT31;52070;53.760;9.678;2023-03-24T04:58:26;10.88;93.72
65374;SHT31;52070;53.760;9.678;2023-03-24T05:00:55;10.91;93.75
65374;SHT31;52070;53.760;9.678;2023-03-24T05:03:23;10.89;93.80
65374;SHT31;52070;53.760;9.678;2023-03-24T05:05:51;10.91;93.86
65374;SHT31;52070;53.760;9.678;2023-03-24T05:08:19;10.87;93.92
65374;SHT31;52070;53.760;9.678;2023-03-24T05:10:46;10.88;94.03
65374;SHT31;52070;53.760;9.678;2023-03-24T05:13:14;10.89;94.08
65374;SHT31;52070;53.760;9.678;2023-03-24T05:15:41;10.92;94.15
65374;SHT31;52070;53.760;9.678;2023-03-24T05:18:09;10.92;94.16
65374;SHT31;52070;53.760;9.678;2023-03-24T05:20:36;10.95;94.19
65374;SHT31;52070;53.760;9.678;2023-03-24T05:23:03;10.97;94.23
65374;SHT31;52070;53.760;9.678;2023-03-24T05:25:31;10.92;94.21
65374;SHT31;52070;53.760;9.678;2023-03-24T05:27:58;10.95;94.27
65374;SHT31;52070;53.760;9.678;2023-03-24T05:30:25;10.94;94.34
65374;SHT31;52070;53.760;9.678;2023-03-24T05:32:52;10.97;94.34
65374;SHT31;52070;53.760;9.678;2023-03-24T05:35:20;11.01;94.46
65374;SHT31;52070;53.760;9.678;2023-03-24T05:37:47;11.01;94.45
65374;SHT31;52070;53.760;9.678;2023-03-24T05:40:14;11.01;94.44
65374;SHT31;52070;53.760;9.678;2023-03-24T05:42:42;11.02;94.46
65374;SHT31;52070;53.760;9.678;2023-03-24T05:45:10;11.11;94.47
65374;SHT31;52070;53.760;9.678;2023-03-24T05:47:37;11.11;94.44
65374;SHT31;52070;53.760;9.678;2023-03-24T05:50:04;11.14;94.39
65374;SHT31;52070;53.760;9.678;2023-03-24T05:52:33;11.16;94.33
65374;SHT31;52070;53.760;9.678;2023-03-24T05:55:01;11.18;94.29
65374;SHT31;52070;53.760;9.678;2023-03-24T05:57:28;11.15;94.29
65374;SHT31;52070;53.760;9.678;2023-03-24T05:59:55;11.18;94.28
65374;SHT31;52070;53.760;9.678;2023-03-24T06:02:23;11.18;94.29
65374;SHT31;52070;53.760;9.678;2023-03-24T06:04:50;11.22;94.34
65374;SHT31;52070;53.760;9.678;2023-03-24T06:07:17;11.23;94.34
65374;SHT31;52070;53.760;9.678;2023-03-24T06:09:46;11.21;94.33
65374;SHT31;52070;53.760;9.678;2023-03-24T06:12:15;11.23;94.35
65374;SHT31;52070;53.760;9.678;2023-03-24T06:14:42;11.23;94.35
65374;SHT31;52070;53.760;9.678;2023-03-24T06:17:10;11.28;94.38
65374;SHT31;52070;53.760;9.678;2023-03-24T06:19:40;11.29;94.40
65374;SHT31;52070;53.760;9.678;2023-03-24T06:22:15;11.35;94.42
65374;SHT31;52070;53.760;9.678;2023-03-24T06:24:42;11.35;94.49
65374;SHT31;52070;53.760;9.678;2023-03-24T06:27:10;11.35;94.46
65374;SHT31;52070;53.760;9.678;2023-03-24T06:29:39;11.38;94.49
65374;SHT31;52070;53.760;9.678;2023-03-24T06:32:08;11.39;94.48
65374;SHT31;52070;53.760;9.678;2023-03-24T06:34:35;11.44;94.45
65374;SHT31;52070;53.760;9.678;2023-03-24T06:37:03;11.51;94.37
65374;SHT31;52070;53.760;9.678;2023-03-24T06:39:30;11.52;94.32
65374;SHT31;52070;53.760;9.678;2023-03-24T06:41:57;11.49;94.29
65374;SHT31;52070;53.760;9.678;2023-03-24T06:44:26;11.52;94.35
65374;SHT31;52070;53.760;9.678;2023-03-24T06:46:53;11.47;94.43
65374;SHT31;52070;53.760;9.678;2023-03-24T06:49:20;11.49;94.55
65374;SHT31;52070;53.760;9.678;2023-03-24T06:51:47;11.47;94.59
65374;SHT31;52070;53.760;9.678;2023-03-24T06:54:14;11.49;94.28
65374;SHT31;52070;53.760;9.678;2023-03-24T06:56:41;11.49;93.90
65374;SHT31;52070;53.760;9.678;2023-03-24T06:59:08;11.53;93.20
65374;SHT31;52070;53.760;9.678;2023-03-24T07:01:37;11.53;92.77
65374;SHT31;52070;53.760;9.678;2023-03-24T07:04:05;11.52;92.63
65374;SHT31;52070;53.760;9.678;2023-03-24T07:06:32;11.51;92.45
65374;SHT31;52070;53.760;9.678;2023-03-24T07:09:00;11.40;92.20
65374;SHT31;52070;53.760;9.678;2023-03-24T07:11:27;11.36;91.56
65374;SHT31;52070;53.760;9.678;2023-03-24T07:13:54;11.29;90.34
65374;SHT31;52070;53.760;9.678;2023-03-24T07:16:21;11.25;89.53
65374;SHT31;52070;53.760;9.678;2023-03-24T07:18:49;11.22;89.72
65374;SHT31;52070;53.760;9.678;2023-03-24T07:21:16;11.22;90.11
65374;SHT31;52070;53.760;9.678;2023-03-24T07:23:43;11.19;90.16
65374;SHT31;52070;53.760;9.678;2023-03-24T07:26:10;11.19;90.55
65374;SHT31;52070;53.760;9.678;2023-03-24T07:28:36;11.16;90.65
65374;SHT31;52070;53.760;9.678;2023-03-24T07:31:04;11.16;89.90
65374;SHT31;52070;53.760;9.678;2023-03-24T07:33:35;11.14;89.56
65374;SHT31;52070;53.760;9.678;2023-03-24T07:36:04;11.15;88.90
65374;SHT31;52070;53.760;9.678;2023-03-24T07:38:32;11.09;88.79
65374;SHT31;52070;53.760;9.678;2023-03-24T07:41:00;11.04;88.41
65374;SHT31;52070;53.760;9.678;2023-03-24T07:43:27;10.98;88.44
65374;SHT31;52070;53.760;9.678;2023-03-24T07:45:54;10.92;87.37
65374;SHT31;52070;53.760;9.678;2023-03-24T07:48:20;10.92;87.66
65374;SHT31;52070;53.760;9.678;2023-03-24T07:50:47;10.91;87.90
65374;SHT31;52070;53.760;9.678;2023-03-24T07:53:16;11.01;87.74
65374;SHT31;52070;53.760;9.678;2023-03-24T07:55:44;11.11;87.25
65374;SHT31;52070;53.760;9.678;2023-03-24T07:58:12;11.19;87.18
65374;SHT31;52070;53.760;9.678;2023-03-24T08:00:39;11.26;86.37
65374;SHT31;52070;53.760;9.678;2023-03-24T08:03:08;11.26;85.96
65374;SHT31;52070;53.760;9.678;2023-03-24T08:05:40;11.21;85.07
65374;SHT31;52070;53.760;9.678;2023-03-24T08:08:08;11.25;84.91
65374;SHT31;52070;53.760;9.678;2023-03-24T08:10:36;11.33;84.86
65374;SHT31;52070;53.760;9.678;2023-03-24T08:13:03;11.31;83.48
65374;SHT31;52070;53.760;9.678;2023-03-24T08:15:30;11.23;81.87
65374;SHT31;52070;53.760;9.678;2023-03-24T08:17:57;11.18;80.94
65374;SHT31;52070;53.760;9.678;2023-03-24T08:20:24;11.21;81.98
65374;SHT31;52070;53.760;9.678;2023-03-24T08:22:52;11.18;81.48
65374;SHT31;52070;53.760;9.678;2023-03-24T08:25:21;11.19;81.55
65374;SHT31;52070;53.760;9.678;2023-03-24T08:27:49;11.15;80.68
65374;SHT31;52070;53.760;9.678;2023-03-24T08:30:18;11.12;80.36
65374;SHT31;52070;53.760;9.678;2023-03-24T08:32:47;11.09;79.88
65374;SHT31;52070;53.760;9.678;2023-03-24T08:35:15;11.11;80.50
65374;SHT31;52070;53.760;9.678;2023-03-24T08:37:43;11.11;79.86
65374;SHT31;52070;53.760;9.678;2023-03-24T08:40:13;11.11;79.43
65374;SHT31;52070;53.760;9.678;2023-03-24T08:42:46;11.09;79.16
65374;SHT31;52070;53.760;9.678;2023-03-24T08:45:15;11.15;79.49
65374;SHT31;52070;53.760;9.678;2023-03-24T08:47:45;11.18;78.48
65374;SHT31;52070;53.760;9.678;2023-03-24T08:50:12;11.21;77.41
65374;SHT31;52070;53.760;9.678;2023-03-24T08:52:40;11.33;77.55
65374;SHT31;52070;53.760;9.678;2023-03-24T08:55:08;11.31;77.24
65374;SHT31;52070;53.760;9.678;2023-03-24T08:57:36;11.33;77.60
65374;SHT31;52070;53.760;9.678;2023-03-24T09:00:03;11.42;78.47
65374;SHT31;52070;53.760;9.678;2023-03-24T09:02:39;11.52;79.18
65374;SHT31;52070;53.760;9.678;2023-03-24T09:05:07;11.43;76.42
65374;SHT31;52070;53.760;9.678;2023-03-24T09:07:34;11.38;75.63
65374;SHT31;52070;53.760;9.678;2023-03-24T09:10:02;11.39;75.81
65374;SHT31;52070;53.760;9.678;2023-03-24T09:12:29;11.40;75.28
65374;SHT31;52070;53.760;9.678;2023-03-24T09:14:56;11.42;75.83
65374;SHT31;52070;53.760;9.678;2023-03-24T09:17:23;11.35;76.06
65374;SHT31;52070;53.760;9.678;2023-03-24T09:19:51;11.38;76.04
65374;SHT31;52070;53.760;9.678;2023-03-24T09:22:18;11.42;75.84
65374;SHT31;52070;53.760;9.678;2023-03-24T09:24:45;11.52;76.39
65374;SHT31;52070;53.760;9.678;2023-03-24T09:27:13;11.53;76.58
65374;SHT31;52070;53.760;9.678;2023-03-24T09:29:40;11.65;77.44
65374;SHT31;52070;53.760;9.678;2023-03-24T09:32:07;11.70;75.69
65374;SHT31;52070;53.760;9.678;2023-03-24T09:34:34;11.67;75.57
65374;SHT31;52070;53.760;9.678;2023-03-24T09:37:04;11.58;75.27
65374;SHT31;52070;53.760;9.678;2023-03-24T09:39:34;11.46;75.43
65374;SHT31;52070;53.760;9.678;2023-03-24T09:42:02;11.32;76.33
65374;SHT31;52070;53.760;9.678;2023-03-24T09:44:33;11.15;79.21
65374;SHT31;52070;53.760;9.678;2023-03-24T09:47:03;10.85;81.05
65374;SHT31;52070;53.760;9.678;2023-03-24T09:49:37;10.78;82.78
65374;SHT31;52070;53.760;9.678;2023-03-24T09:52:09;10.63;83.27
65374;SHT31;52070;53.760;9.678;2023-03-24T09:54:42;10.68;84.19
65374;SHT31;52070;53.760;9.678;2023-03-24T09:57:16;10.78;84.19
65374;SHT31;52070;53.760;9.678;2023-03-24T09:59:44;10.87;83.07
65374;SHT31;52070;53.760;9.678;2023-03-24T10:02:13;10.89;82.51
65374;SHT31;52070;53.760;9.678;2023-03-24T10:04:41;10.92;82.74
65374;SHT31;52070;53.760;9.678;2023-03-24T10:07:17;10.94;82.94
65374;SHT31;52070;53.760;9.678;2023-03-24T10:09:49;10.97;82.14
65374;SHT31;52070;53.760;9.678;2023-03-24T10:12:27;11.08;79.66
65374;SHT31;52070;53.760;9.678;2023-03-24T10:15:12;11.26;80.51
65374;SHT31;52070;53.760;9.678;2023-03-24T10:17:49;11.31;78.73
65374;SHT31;52070;53.760;9.678;2023-03-24T10:20:27;11.40;78.83
65374;SHT31;52070;53.760;9.678;2023-03-24T10:23:06;11.56;78.90
65374;SHT31;52070;53.760;9.678;2023-03-24T10:25:42;11.69;76.97
65374;SHT31;52070;53.760;9.678;2023-03-24T10:28:15;11.70;75.47
65374;SHT31;52070;53.760;9.678;2023-03-24T10:30:44;11.84;76.64
65374;SHT31;52070;53.760;9.678;2023-03-24T10:33:13;11.80;74.57
65374;SHT31;52070;53.760;9.678;2023-03-24T10:35:42;11.77;74.52
65374;SHT31;52070;53.760;9.678;2023-03-24T10:38:16;11.76;75.01
65374;SHT31;52070;53.760;9.678;2023-03-24T10:40:45;11.72;74.54
65374;SHT31;52070;53.760;9.678;2023-03-24T10:43:12;11.76;75.05
65374;SHT31;52070;53.760;9.678;2023-03-24T10:45:42;11.82;74.55
65374;SHT31;52070;53.760;9.678;2023-03-24T10:48:11;12.16;75.61
65374;SHT31;52070;53.760;9.678;2023-03-24T10:50:41;12.34;74.23
65374;SHT31;52070;53.760;9.678;2023-03-24T10:53:17;12.52;74.33
65374;SHT31;52070;53.760;9.678;2023-03-24T10:55:45;13.08;74.08
65374;SHT31;52070;53.760;9.678;2023-03-24T10:58:18;13.03;71.02
65374;SHT31;52070;53.760;9.678;2023-03-24T11:00:47;12.54;71.12
65374;SHT31;52070;53.760;9.678;2023-03-24T11:03:16;12.41;72.66
65374;SHT31;52070;53.760;9.678;2023-03-24T11:05:48;12.24;71.71
65374;SHT31;52070;53.760;9.678;2023-03-24T11:08:25;12.08;70.76
65374;SHT31;52070;53.760;9.678;2023-03-24T11:10:53;12.01;72.46
65374;SHT31;52070;53.760;9.678;2023-03-24T11:13:27;12.06;71.61
65374;SHT31;52070;53.760;9.678;2023-03-24T11:16:03;12.07;71.14
65374;SHT31;52070;53.760;9.678;2023-03-24T11:18:31;12.30;69.85
65374;SHT31;52070;53.760;9.678;2023-03-24T11:20:59;12.31;70.99
65374;SHT31;52070;53.760;9.678;2023-03-24T11:23:31;12.68;70.51
65374;SHT31;52070;53.760;9.678;2023-03-24T11:26:04;12.54;69.63
65374;SHT31;52070;53.760;9.678;2023-03-24T11:28:36;12.52;68.94
65374;SHT31;52070;53.760;9.678;2023-03-24T11:31:06;12.42;68.62
65374;SHT31;52070;53.760;9.678;2023-03-24T11:33:42;12.47;69.19
65374;SHT31;52070;53.760;9.678;2023-03-24T11:36:35;13.06;67.66
65374;SHT31;52070;53.760;9.678;2023-03-24T11:39:13;13.36;64.83
65374;SHT31;52070;53.760;9.678;2023-03-24T11:41:43;13.63;64.45
65374;SHT31;52070;53.760;9.678;2023-03-24T11:44:18;13.40;64.06
65374;SHT31;52070;53.760;9.678;2023-03-24T11:46:47;13.36;63.25
65374;SHT31;52070;53.760;9.678;2023-03-24T11:49:18;13.66;64.45
65374;SHT31;52070;53.760;9.678;2023-03-24T11:51:50;14.10;65.31
65374;SHT31;52070;53.760;9.678;2023-03-24T11:54:22;14.05;63.45
65374;SHT31;52070;53.760;9.678;2023-03-24T11:56:51;13.94;62.79
65374;SHT31;52070;53.760;9.678;2023-03-24T11:59:27;13.94;63.70
65374;SHT31;52070;53.760;9.678;2023-03-24T12:02:02;14.18;65.00
65374;SHT31;52070;53.760;9.678;2023-03-24T12:04:40;14.69;62.29
65374;SHT31;52070;53.760;9.678;2023-03-24T12:07:26;15.07;62.35
65374;SHT31;52070;53.760;9.678;2023-03-24T12:10:01;15.00;59.10
65374;SHT31;52070;53.760;9.678;2023-03-24T12:12:37;15.27;58.75
65374;SHT31;52070;53.760;9.678;2023-03-24T12:15:21;14.96;56.75
65374;SHT31;52070;53.760;9.678;2023-03-24T12:17:57;14.88;57.31
65374;SHT31;52070;53.760;9.678;2023-03-24T12:20:29;15.04;57.12
65374;SHT31;52070;53.760;9.678;2023-03-24T12:23:02;14.99;56.16
65374;SHT31;52070;53.760;9.678;2023-03-24T12:25:43;14.80;55.62
65374;SHT31;52070;53.760;9.678;2023-03-24T12:28:26;14.29;57.35
65374;SHT31;52070;53.760;9.678;2023-03-24T12:31:05;13.80;56.18
65374;SHT31;52070;53.760;9.678;2023-03-24T12:33:42;13.43;55.40
65374;SHT31;52070;53.760;9.678;2023-03-24T12:36:24;13.70;56.32
65374;SHT31;52070;53.760;9.678;2023-03-24T12:39:01;13.94;55.13
65374;SHT31;52070;53.760;9.678;2023-03-24T12:41:43;14.44;54.86
65374;SHT31;52070;53.760;9.678;2023-03-24T12:44:22;14.96;53.61
65374;SHT31;52070;53.760;9.678;2023-03-24T12:46:59;14.96;50.66
65374;SHT31;52070;53.760;9.678;2023-03-24T12:49:40;15.34;51.01
65374;SHT31;52070;53.760;9.678;2023-03-24T12:52:22;15.14;51.62
65374;SHT31;52070;53.760;9.678;2023-03-24T12:54:54;15.29;51.19
65374;SHT31;52070;53.760;9.678;2023-03-24T12:57:32;14.89;51.16
65374;SHT31;52070;53.760;9.678;2023-03-24T13:00:04;15.40;52.18
65374;SHT31;52070;53.760;9.678;2023-03-24T13:02:38;15.40;50.22
65374;SHT31;52070;53.760;9.678;2023-03-24T13:05:14;15.49;51.14
65374;SHT31;52070;53.760;9.678;2023-03-24T13:07:42;15.02;51.64
65374;SHT31;52070;53.760;9.678;2023-03-24T13:10:15;14.86;51.86
65374;SHT31;52070;53.760;9.678;2023-03-24T13:12:51;14.55;52.89
65374;SHT31;52070;53.760;9.678;2023-03-24T13:15:22;14.26;53.49
65374;SHT31;52070;53.760;9.678;2023-03-24T13:17:56;13.88;54.76
65374;SHT31;52070;53.760;9.678;2023-03-24T13:20:28;13.64;55.15
65374;SHT31;52070;53.760;9.678;2023-03-24T13:23:00;14.04;55.02
65374;SHT31;52070;53.760;9.678;2023-03-24T13:25:33;14.46;52.45
65374;SHT31;52070;53.760;9.678;2023-03-24T13:28:07;14.49;52.06
65374;SHT31;52070;53.760;9.678;2023-03-24T13:30:37;14.95;52.32
65374;SHT31;52070;53.760;9.678;2023-03-24T13:33:10;15.03;49.62
65374;SHT31;52070;53.760;9.678;2023-03-24T13:35:52;14.93;48.48
65374;SHT31;52070;53.760;9.678;2023-03-24T13:38:25;15.24;47.67
65374;SHT31;52070;53.760;9.678;2023-03-24T13:40:55;15.39;46.21
65374;SHT31;52070;53.760;9.678;2023-03-24T13:43:25;15.51;47.59
65374;SHT31;52070;53.760;9.678;2023-03-24T13:45:58;15.57;47.89
65374;SHT31;52070;53.760;9.678;2023-03-24T13:48:30;15.50;47.28
65374;SHT31;52070;53.760;9.678;2023-03-24T13:51:02;15.65;49.49
65374;SHT31;52070;53.760;9.678;2023-03-24T13:53:34;15.85;47.16
65374;SHT31;52070;53.760;9.678;2023-03-24T13:56:03;15.88;47.70
65374;SHT31;52070;53.760;9.678;2023-03-24T13:58:50;15.95;45.70
65374;SHT31;52070;53.760;9.678;2023-03-24T14:01:33;15.55;45.62
65374;SHT31;52070;53.760;9.678;2023-03-24T14:04:21;15.10;46.54
65374;SHT31;52070;53.760;9.678;2023-03-24T14:06:50;14.82;46.29
65374;SHT31;52070;53.760;9.678;2023-03-24T14:09:19;14.96;47.94
65374;SHT31;52070;53.760;9.678;2023-03-24T14:12:16;15.36;46.67
65374;SHT31;52070;53.760;9.678;2023-03-24T14:15:15;15.47;45.46
65374;SHT31;52070;53.760;9.678;2023-03-24T14:17:44;15.65;45.99
65374;SHT31;52070;53.760;9.678;2023-03-24T14:20:28;15.53;45.49
65374;SHT31;52070;53.760;9.678;2023-03-24T14:22:58;15.81;46.90
65374;SHT31;52070;53.760;9.678;2023-03-24T14:25:27;15.87;47.71
65374;SHT31;52070;53.760;9.678;2023-03-24T14:28:09;14.86;46.80
65374;SHT31;52070;53.760;9.678;2023-03-24T14:30:56;14.69;48.86
65374;SHT31;52070;53.760;9.678;2023-03-24T14:33:25;14.69;49.34
65374;SHT31;52070;53.760;9.678;2023-03-24T14:35:56;15.06;48.49
65374;SHT31;52070;53.760;9.678;2023-03-24T14:38:26;15.60;49.04
65374;SHT31;52070;53.760;9.678;2023-03-24T14:40:57;15.47;47.87
65374;SHT31;52070;53.760;9.678;2023-03-24T14:43:26;15.60;47.15
65374;SHT31;52070;53.760;9.678;2023-03-24T14:45:58;15.51;48.53
65374;SHT31;52070;53.760;9.678;2023-03-24T14:48:35;15.78;48.73
65374;SHT31;52070;53.760;9.678;2023-03-24T14:54:02;14.85;49.35
65374;SHT31;52070;53.760;9.678;2023-03-24T14:56:34;15.09;49.54
65374;SHT31;52070;53.760;9.678;2023-03-24T14:59:06;15.46;48.92
65374;SHT31;52070;53.760;9.678;2023-03-24T15:01:36;15.26;47.46
65374;SHT31;52070;53.760;9.678;2023-03-24T15:04:06;15.58;47.88
65374;SHT31;52070;53.760;9.678;2023-03-24T15:06:42;15.46;46.13
65374;SHT31;52070;53.760;9.678;2023-03-24T15:09:13;15.02;46.45
65374;SHT31;52070;53.760;9.678;2023-03-24T15:11:40;14.88;49.01
65374;SHT31;52070;53.760;9.678;2023-03-24T15:14:17;15.29;47.94
65374;SHT31;52070;53.760;9.678;2023-03-24T15:16:53;15.47;47.20
65374;SHT31;52070;53.760;9.678;2023-03-24T15:19:22;15.47;47.38
65374;SHT31;52070;53.760;9.678;2023-03-24T15:21:56;15.46;46.53
65374;SHT31;52070;53.760;9.678;2023-03-24T15:24:27;15.19;47.29
65374;SHT31;52070;53.760;9.678;2023-03-24T15:26:54;15.30;47.71
65374;SHT31;52070;53.760;9.678;2023-03-24T15:29:32;15.07;50.19
65374;SHT31;52070;53.760;9.678;2023-03-24T15:32:02;15.16;49.45
65374;SHT31;52070;53.760;9.678;2023-03-24T15:34:30;15.24;48.87
65374;SHT31;52070;53.760;9.678;2023-03-24T15:37:02;15.78;49.11
65374;SHT31;52070;53.760;9.678;2023-03-24T15:39:32;15.80;47.17
65374;SHT31;52070;53.760;9.678;2023-03-24T15:42:03;15.51;46.72
65374;SHT31;52070;53.760;9.678;2023-03-24T15:44:35;15.41;46.69
65374;SHT31;52070;53.760;9.678;2023-03-24T15:47:13;15.14;46.17
65374;SHT31;52070;53.760;9.678;2023-03-24T15:49:46;15.49;46.02
65374;SHT31;52070;53.760;9.678;2023-03-24T15:52:25;15.33;45.13
65374;SHT31;52070;53.760;9.678;2023-03-24T15:54:55;15.30;45.21
65374;SHT31;52070;53.760;9.678;2023-03-24T15:57:23;15.11;45.34
65374;SHT31;52070;53.760;9.678;2023-03-24T15:59:55;14.76;47.11
65374;SHT31;52070;53.760;9.678;2023-03-24T16:02:28;14.95;47.44